createdAt,value
2023-02-11T00:00:04.780Z,67.50
2023-02-11T00:00:41.028Z,67.25
2023-02-11T00:01:25.405Z,67.27
2023-02-11T00:01:57.240Z,67.66
2023-02-11T00:02:29.801Z,67.98
2023-02-11T00:03:01.658Z,67.87
2023-02-11T00:03:33.490Z,67.11
2023-02-11T00:04:06.977Z,67.08
2023-02-11T00:04:38.716Z,67.61
2023-02-11T00:05:10.920Z,67.25
2023-02-11T00:05:42.703Z,67.04
2023-02-11T00:06:14.804Z,66.84
2023-02-11T00:06:46.562Z,66.48
2023-02-11T00:07:18.324Z,66.86
2023-02-11T00:07:50.094Z,66.50
2023-02-11T00:08:21.839Z,66.67
2023-02-11T00:08:54.594Z,67.13
2023-02-11T00:09:26.378Z,66.83
2023-02-11T00:09:58.159Z,66.37
2023-02-11T00:10:29.871Z,66.72
2023-02-11T00:11:01.768Z,66.56
2023-02-11T00:11:34.538Z,67.04
2023-02-11T00:12:06.511Z,66.70
2023-02-11T00:12:38.703Z,66.47
2023-02-11T00:13:10.449Z,66.61
2023-02-11T00:13:43.724Z,66.30
2023-02-11T00:14:15.658Z,66.59
2023-02-11T00:14:47.688Z,65.76
2023-02-11T00:15:21.273Z,66.16
2023-02-11T00:15:54.221Z,66.46
2023-02-11T00:16:26.624Z,65.74
2023-02-11T00:16:58.587Z,65.95
2023-02-11T00:17:30.470Z,65.74
2023-02-11T00:18:02.264Z,65.91
2023-02-11T00:18:34.090Z,65.52
2023-02-11T00:19:06.764Z,65.79
2023-02-11T00:19:38.522Z,65.85
2023-02-11T00:20:10.559Z,66.18
2023-02-11T00:20:43.225Z,65.50
2023-02-11T00:21:17.938Z,65.10
2023-02-11T00:21:49.676Z,65.40
2023-02-11T00:22:21.557Z,65.72
2023-02-11T00:22:53.351Z,65.50
2023-02-11T00:23:25.271Z,65.44
2023-02-11T00:23:59.836Z,65.97
2023-02-11T00:24:31.682Z,65.71
2023-02-11T00:25:03.857Z,65.07
2023-02-11T00:25:41.066Z,65.01
2023-02-11T00:26:22.181Z,65.19
2023-02-11T00:26:53.920Z,64.99
2023-02-11T00:27:25.709Z,65.09
2023-02-11T00:27:57.645Z,65.01
2023-02-11T00:28:29.792Z,65.30
2023-02-11T00:29:02.619Z,64.80
2023-02-11T00:29:34.369Z,65.42
2023-02-11T00:30:06.633Z,65.19
2023-02-11T00:30:38.641Z,64.82
2023-02-11T00:31:11.119Z,65.73
2023-02-11T00:31:43.073Z,65.40
2023-02-11T00:32:14.957Z,65.64
2023-02-11T00:32:47.044Z,65.19
2023-02-11T00:33:18.891Z,65.84
2023-02-11T00:33:51.622Z,65.34
2023-02-11T00:34:23.852Z,65.22
2023-02-11T00:34:55.734Z,65.26
2023-02-11T00:35:27.880Z,65.94
2023-02-11T00:36:04.561Z,65.35
2023-02-11T00:36:36.322Z,65.77
2023-02-11T00:37:08.102Z,66.30
2023-02-11T00:37:39.976Z,66.00
2023-02-11T00:38:11.804Z,66.11
2023-02-11T00:38:44.944Z,65.71
2023-02-11T00:39:16.714Z,66.21
2023-02-11T00:39:50.208Z,65.99
2023-02-11T00:40:22.678Z,65.86
2023-02-11T00:40:54.476Z,66.67
2023-02-11T00:41:27.057Z,66.43
2023-02-11T00:41:59.244Z,66.88
2023-02-11T00:42:31.086Z,66.66
2023-02-11T00:43:02.852Z,66.68
2023-02-11T00:43:35.821Z,67.10
2023-02-11T00:44:07.660Z,67.01
2023-02-11T00:44:39.501Z,66.74
2023-02-11T00:45:12.526Z,68.06
2023-02-11T00:45:44.309Z,67.56
2023-02-11T00:46:16.312Z,67.92
2023-02-11T00:46:48.233Z,67.84
2023-02-11T00:47:19.954Z,67.52
2023-02-11T00:47:51.742Z,67.70
2023-02-11T00:48:23.515Z,67.98
2023-02-11T00:48:57.883Z,68.33
2023-02-11T00:49:29.763Z,68.23
2023-02-11T00:50:02.347Z,68.35
2023-02-11T00:50:34.116Z,68.39
2023-02-11T00:51:06.847Z,68.34
2023-02-11T00:51:38.688Z,68.12
2023-02-11T00:52:10.537Z,68.12
2023-02-11T00:52:42.560Z,68.04
2023-02-11T00:53:14.357Z,67.98
2023-02-11T00:53:46.183Z,68.76
2023-02-11T00:54:17.958Z,68.29
2023-02-11T00:54:49.808Z,68.02
2023-02-11T00:55:21.618Z,68.73
2023-02-11T00:55:53.562Z,67.85
2023-02-11T00:56:25.490Z,69.05
2023-02-11T00:56:57.219Z,68.80
2023-02-11T00:57:28.986Z,69.16
2023-02-11T00:58:00.710Z,69.70
2023-02-11T00:58:32.494Z,68.72
2023-02-11T00:59:04.480Z,69.17
2023-02-11T00:59:36.399Z,69.33
2023-02-11T01:00:10.025Z,69.13
2023-02-11T01:00:41.758Z,69.34
2023-02-11T01:01:14.074Z,69.83
2023-02-11T01:01:45.870Z,70.15
2023-02-11T01:02:18.103Z,69.66
2023-02-11T01:02:49.898Z,69.65
2023-02-11T01:03:21.732Z,69.88
2023-02-11T01:03:53.555Z,70.03
2023-02-11T01:04:25.443Z,70.44
2023-02-11T01:04:58.596Z,69.97
2023-02-11T01:05:30.511Z,69.49
2023-02-11T01:06:02.383Z,69.63
2023-02-11T01:06:34.204Z,69.03
2023-02-11T01:07:06.198Z,70.71
2023-02-11T01:07:37.984Z,70.65
2023-02-11T01:08:09.835Z,70.85
2023-02-11T01:08:41.818Z,69.67
2023-02-11T01:09:13.573Z,70.09
2023-02-11T01:09:45.402Z,69.75
2023-02-11T01:10:17.407Z,69.58
2023-02-11T01:11:17.180Z,70.08
2023-02-11T01:11:48.945Z,70.18
2023-02-11T01:12:20.906Z,70.03
2023-02-11T01:12:52.750Z,69.44
2023-02-11T01:13:26.146Z,70.04
2023-02-11T01:13:57.877Z,69.56
2023-02-11T01:14:29.672Z,69.55
2023-02-11T01:15:01.469Z,70.67
2023-02-11T01:15:33.582Z,70.80
2023-02-11T01:16:10.237Z,70.04
2023-02-11T01:16:42.091Z,70.44
2023-02-11T01:17:13.885Z,70.42
2023-02-11T01:17:45.878Z,70.82
2023-02-11T01:18:17.843Z,70.97
2023-02-11T01:18:49.599Z,70.53
2023-02-11T01:19:21.415Z,71.67
2023-02-11T01:19:53.215Z,70.95
2023-02-11T01:20:28.570Z,70.99
2023-02-11T01:21:00.416Z,71.78
2023-02-11T01:21:32.371Z,71.75
2023-02-11T01:22:05.036Z,71.30
2023-02-11T01:22:39.645Z,72.07
2023-02-11T01:23:11.814Z,72.01
2023-02-11T01:23:43.653Z,71.47
2023-02-11T01:24:15.410Z,72.03
2023-02-11T01:24:47.497Z,71.80
2023-02-11T01:25:19.472Z,70.97
2023-02-11T01:25:51.545Z,72.00
2023-02-11T01:26:23.492Z,71.50
2023-02-11T01:26:55.443Z,71.31
2023-02-11T01:27:27.200Z,71.82
2023-02-11T01:27:59.037Z,72.04
2023-02-11T01:28:31.727Z,71.38
2023-02-11T01:29:03.875Z,71.58
2023-02-11T01:29:35.567Z,71.93
2023-02-11T01:30:09.682Z,71.73
2023-02-11T01:30:41.456Z,71.41
2023-02-11T01:31:14.249Z,71.36
2023-02-11T01:31:46.120Z,72.16
2023-02-11T01:32:18.010Z,71.09
2023-02-11T01:32:49.821Z,71.25
2023-02-11T01:33:22.669Z,71.58
2023-02-11T01:33:54.450Z,71.07
2023-02-11T01:34:26.217Z,71.30
2023-02-11T01:34:58.015Z,72.02
2023-02-11T01:35:29.877Z,71.72
2023-02-11T01:36:03.599Z,71.33
2023-02-11T01:36:35.321Z,71.92
2023-02-11T01:37:07.309Z,71.23
2023-02-11T01:37:39.185Z,71.23
2023-02-11T01:38:26.211Z,71.79
2023-02-11T01:38:57.990Z,71.65
2023-02-11T01:39:34.106Z,71.72
2023-02-11T01:40:08.568Z,72.31
2023-02-11T01:40:40.367Z,72.48
2023-02-11T01:41:14.909Z,72.47
2023-02-11T01:41:46.691Z,72.27
2023-02-11T01:42:20.892Z,72.83
2023-02-11T01:42:52.715Z,72.74
2023-02-11T01:43:26.446Z,71.96
2023-02-11T01:43:58.262Z,72.73
2023-02-11T01:44:37.011Z,72.46
2023-02-11T01:45:46.312Z,72.22
2023-02-11T01:46:24.009Z,72.74
2023-02-11T01:46:55.959Z,72.03
2023-02-11T01:47:27.715Z,72.27
2023-02-11T01:48:02.522Z,72.78
2023-02-11T01:48:39.001Z,72.66
2023-02-11T01:49:21.841Z,72.87
2023-02-11T01:49:59.193Z,72.93
2023-02-11T01:50:31.830Z,73.22
2023-02-11T01:51:49.581Z,72.59
2023-02-11T01:52:31.214Z,73.00
2023-02-11T01:53:22.987Z,73.60
2023-02-11T01:54:15.718Z,73.80
2023-02-11T01:55:10.558Z,73.07
2023-02-11T01:56:01.164Z,73.89
2023-02-11T01:56:55.879Z,73.19
2023-02-11T01:57:31.473Z,72.61
2023-02-11T01:58:05.388Z,73.42
2023-02-11T01:58:42.038Z,73.21
2023-02-11T01:59:22.752Z,73.24
2023-02-11T02:00:10.303Z,72.90
2023-02-11T02:00:43.144Z,72.64
2023-02-11T02:01:23.391Z,72.98
2023-02-11T02:02:00.946Z,73.07
2023-02-11T02:03:08.115Z,73.08
2023-02-11T02:03:45.482Z,73.56
2023-02-11T02:04:19.849Z,73.11
2023-02-11T02:04:58.826Z,73.56
2023-02-11T02:05:37.265Z,73.06
2023-02-11T02:06:45.954Z,73.95
2023-02-11T02:07:31.459Z,74.06
2023-02-11T02:08:09.188Z,73.62
2023-02-11T02:09:01.102Z,73.73
2023-02-11T02:09:40.514Z,73.50
2023-02-11T02:10:19.612Z,74.33
2023-02-11T02:10:56.630Z,73.60
2023-02-11T02:11:28.390Z,74.06
2023-02-11T02:12:00.449Z,74.41
2023-02-11T02:12:32.283Z,75.13
2023-02-11T02:13:04.228Z,74.70
2023-02-11T02:13:36.496Z,73.96
2023-02-11T02:14:08.248Z,74.01
2023-02-11T02:14:41.824Z,74.46
2023-02-11T02:15:29.575Z,74.39
2023-02-11T02:16:04.770Z,75.08
2023-02-11T02:16:38.037Z,74.56
2023-02-11T02:17:27.719Z,74.62
2023-02-11T02:18:07.276Z,75.71
2023-02-11T02:19:00.609Z,75.79
2023-02-11T02:20:02.669Z,75.30
2023-02-11T02:21:09.011Z,75.73
2023-02-11T02:22:14.300Z,75.12
2023-02-11T02:23:17.243Z,74.96
2023-02-11T02:24:22.255Z,74.63
2023-02-11T02:25:01.194Z,74.58
2023-02-11T02:25:51.214Z,74.63
2023-02-11T02:27:04.126Z,75.14
2023-02-11T02:28:03.039Z,74.38
2023-02-11T02:29:14.673Z,74.34
2023-02-11T02:30:03.772Z,75.56
2023-02-11T02:31:09.064Z,75.38
2023-02-11T02:31:50.081Z,74.70
2023-02-11T02:32:43.688Z,73.68
2023-02-11T02:33:34.787Z,73.57
2023-02-11T02:34:48.678Z,74.70
2023-02-11T02:35:52.628Z,74.08
2023-02-11T02:36:34.492Z,74.57
2023-02-11T02:37:31.671Z,73.06
2023-02-11T02:38:14.505Z,73.89
2023-02-11T02:38:57.901Z,73.22
2023-02-11T02:39:34.655Z,73.89
2023-02-11T02:40:36.944Z,73.12
2023-02-11T02:41:13.131Z,73.46
2023-02-11T02:41:47.306Z,74.15
2023-02-11T02:42:21.489Z,74.40
2023-02-11T02:42:55.127Z,74.65
2023-02-11T02:43:27.947Z,74.93
2023-02-11T02:44:00.253Z,75.47
2023-02-11T02:44:32.502Z,74.22
2023-02-11T02:45:04.920Z,74.93
2023-02-11T02:45:36.827Z,75.14
2023-02-11T02:46:27.221Z,74.72
2023-02-11T02:46:59.111Z,74.81
2023-02-11T02:47:30.893Z,74.46
2023-02-11T02:48:02.626Z,74.70
2023-02-11T02:48:38.099Z,75.49
2023-02-11T02:49:15.031Z,74.75
2023-02-11T02:49:46.795Z,74.83
2023-02-11T02:50:30.295Z,74.94
2023-02-11T02:51:32.230Z,75.63
2023-02-11T02:52:56.179Z,75.32
2023-02-11T02:53:38.848Z,75.53
2023-02-11T02:54:22.412Z,75.52
2023-02-11T02:55:28.234Z,75.18
2023-02-11T02:56:32.772Z,76.06
2023-02-11T02:57:32.799Z,76.03
2023-02-11T02:58:07.483Z,76.34
2023-02-11T02:58:48.009Z,76.35
2023-02-11T02:59:25.452Z,76.44
2023-02-11T03:00:21.922Z,76.22
2023-02-11T03:01:20.915Z,75.77
2023-02-11T03:02:24.915Z,76.80
2023-02-11T03:03:15.813Z,76.57
2023-02-11T03:04:06.586Z,76.33
2023-02-11T03:04:53.006Z,76.30
2023-02-11T03:05:57.295Z,75.91
2023-02-11T03:06:44.738Z,75.76
2023-02-11T03:08:05.776Z,76.18
2023-02-11T03:08:57.138Z,75.88
2023-02-11T03:09:39.198Z,76.50
2023-02-11T03:10:41.270Z,76.41
2023-02-11T03:11:18.676Z,76.28
2023-02-11T03:11:50.560Z,76.15
2023-02-11T03:12:24.913Z,76.12
2023-02-11T03:12:57.788Z,76.37
2023-02-11T03:13:34.085Z,76.67
2023-02-11T03:14:10.773Z,76.83
2023-02-11T03:14:42.751Z,76.34
2023-02-11T03:15:17.697Z,76.56
2023-02-11T03:15:54.120Z,77.30
2023-02-11T03:16:28.513Z,77.10
2023-02-11T03:17:05.240Z,77.09
2023-02-11T03:17:42.852Z,76.48
2023-02-11T03:18:19.263Z,76.43
2023-02-11T03:19:10.559Z,76.68
2023-02-11T03:19:46.368Z,76.17
2023-02-11T03:20:22.492Z,76.40
2023-02-11T03:20:56.328Z,75.88
2023-02-11T03:21:32.645Z,76.63
2023-02-11T03:22:11.981Z,76.06
2023-02-11T03:22:52.752Z,75.81
2023-02-11T03:23:39.014Z,76.05
2023-02-11T03:24:30.698Z,76.99
2023-02-11T03:25:03.381Z,76.28
2023-02-11T03:25:42.146Z,75.93
2023-02-11T03:26:25.516Z,75.65
2023-02-11T03:27:03.790Z,76.11
2023-02-11T03:27:41.626Z,75.85
2023-02-11T03:28:39.197Z,76.76
2023-02-11T03:29:33.126Z,76.49
2023-02-11T03:30:09.952Z,75.76
2023-02-11T03:31:01.240Z,75.68
2023-02-11T03:32:06.007Z,76.48
2023-02-11T03:32:52.555Z,76.79
2023-02-11T03:33:35.813Z,75.54
2023-02-11T03:34:10.027Z,75.97
2023-02-11T03:34:44.769Z,76.35
2023-02-11T03:35:32.770Z,75.40
2023-02-11T03:36:15.540Z,75.47
2023-02-11T03:36:58.974Z,75.99
2023-02-11T03:37:39.916Z,75.89
2023-02-11T03:38:39.410Z,75.01
2023-02-11T03:39:16.094Z,75.86
2023-02-11T03:40:03.597Z,75.97
2023-02-11T03:40:41.578Z,75.85
2023-02-11T03:41:17.800Z,75.38
2023-02-11T03:41:52.790Z,75.33
2023-02-11T03:42:30.906Z,75.93
2023-02-11T03:43:20.195Z,75.66
2023-02-11T03:43:58.324Z,75.60
2023-02-11T03:44:37.027Z,76.27
2023-02-11T03:45:14.014Z,75.47
2023-02-11T03:45:51.189Z,76.30
2023-02-11T03:46:31.052Z,76.54
2023-02-11T03:47:08.074Z,76.56
2023-02-11T03:47:46.423Z,76.02
2023-02-11T03:48:31.215Z,76.49
2023-02-11T03:49:11.655Z,76.08
2023-02-11T03:49:49.306Z,75.95
2023-02-11T03:50:23.396Z,76.24
2023-02-11T03:50:58.769Z,75.77
2023-02-11T03:51:33.022Z,75.19
2023-02-11T03:52:07.903Z,75.51
2023-02-11T03:52:39.948Z,75.20
2023-02-11T03:53:14.609Z,76.01
2023-02-11T03:53:47.756Z,75.82
2023-02-11T03:54:29.307Z,75.23
2023-02-11T03:55:06.079Z,76.13
2023-02-11T03:55:40.486Z,75.75
2023-02-11T03:56:21.653Z,75.78
2023-02-11T03:56:56.970Z,75.84
2023-02-11T03:57:28.886Z,74.96
2023-02-11T03:58:01.119Z,74.63
2023-02-11T03:58:32.856Z,75.08
2023-02-11T03:59:04.700Z,75.50
2023-02-11T03:59:56.086Z,76.08
2023-02-11T04:00:37.194Z,75.51
2023-02-11T04:01:10.004Z,75.62
2023-02-11T04:01:42.042Z,75.71
2023-02-11T04:02:13.778Z,75.70
2023-02-11T04:02:45.838Z,74.89
2023-02-11T04:03:17.812Z,74.73
2023-02-11T04:03:49.684Z,74.12
2023-02-11T04:04:21.507Z,74.54
2023-02-11T04:04:53.630Z,75.17
2023-02-11T04:05:25.774Z,74.72
2023-02-11T04:05:57.567Z,75.05
2023-02-11T04:06:29.343Z,74.44
2023-02-11T04:07:01.058Z,74.44
2023-02-11T04:07:33.263Z,74.42
2023-02-11T04:08:05.577Z,74.82
2023-02-11T04:08:37.404Z,74.73
2023-02-11T04:09:10.289Z,75.13
2023-02-11T04:09:42.379Z,74.52
2023-02-11T04:10:14.408Z,74.20
2023-02-11T04:10:46.348Z,74.88
2023-02-11T04:11:18.182Z,74.69
2023-02-11T04:11:49.943Z,75.01
2023-02-11T04:12:22.224Z,74.84
2023-02-11T04:12:54.032Z,74.33
2023-02-11T04:13:27.259Z,74.60
2023-02-11T04:13:58.996Z,75.25
2023-02-11T04:14:30.736Z,75.13
2023-02-11T04:15:02.478Z,75.36
2023-02-11T04:15:34.430Z,75.11
2023-02-11T04:16:06.320Z,74.54
2023-02-11T04:16:38.149Z,75.32
2023-02-11T04:17:11.064Z,74.80
2023-02-11T04:17:43.176Z,74.70
2023-02-11T04:18:15.116Z,74.96
2023-02-11T04:18:46.893Z,75.61
2023-02-11T04:19:18.847Z,75.21
2023-02-11T04:19:50.638Z,75.10
2023-02-11T04:20:22.421Z,75.63
2023-02-11T04:20:54.149Z,74.84
2023-02-11T04:21:25.954Z,74.83
2023-02-11T04:21:57.923Z,74.94
2023-02-11T04:22:30.370Z,74.58
2023-02-11T04:23:02.158Z,74.89
2023-02-11T04:23:33.970Z,75.42
2023-02-11T04:24:05.904Z,74.65
2023-02-11T04:24:37.774Z,75.06
2023-02-11T04:25:10.083Z,75.20
2023-02-11T04:25:42.978Z,74.54
2023-02-11T04:26:14.887Z,75.35
2023-02-11T04:26:46.747Z,75.01
2023-02-11T04:27:18.564Z,74.76
2023-02-11T04:27:50.349Z,75.90
2023-02-11T04:28:22.266Z,75.34
2023-02-11T04:28:54.052Z,75.41
2023-02-11T04:29:25.795Z,75.83
2023-02-11T04:29:57.558Z,76.04
2023-02-11T04:30:29.304Z,75.65
2023-02-11T04:31:01.120Z,75.45
2023-02-11T04:31:33.062Z,75.04
2023-02-11T04:32:05.153Z,75.34
2023-02-11T04:32:37.019Z,74.82
2023-02-11T04:33:08.790Z,74.70
2023-02-11T04:33:40.604Z,74.85
2023-02-11T04:34:12.562Z,74.50
2023-02-11T04:34:44.670Z,75.00
2023-02-11T04:35:16.597Z,74.96
2023-02-11T04:35:48.812Z,75.09
2023-02-11T04:36:20.876Z,75.08
2023-02-11T04:36:52.654Z,74.60
2023-02-11T04:37:24.493Z,74.16
2023-02-11T04:37:56.328Z,74.84
2023-02-11T04:38:28.212Z,74.90
2023-02-11T04:39:00.044Z,74.07
2023-02-11T04:39:31.870Z,74.83
2023-02-11T04:40:04.067Z,74.00
2023-02-11T04:40:35.876Z,74.56
2023-02-11T04:41:07.655Z,74.52
2023-02-11T04:41:39.463Z,73.92
2023-02-11T04:42:11.331Z,74.25
2023-02-11T04:42:43.275Z,74.72
2023-02-11T04:43:15.168Z,73.80
2023-02-11T04:43:46.922Z,74.56
2023-02-11T04:44:18.699Z,74.65
2023-02-11T04:44:50.509Z,74.63
2023-02-11T04:45:22.285Z,74.60
2023-02-11T04:45:58.805Z,74.30
2023-02-11T04:46:30.902Z,73.99
2023-02-11T04:47:02.684Z,74.53
2023-02-11T04:47:34.798Z,74.19
2023-02-11T04:48:06.560Z,74.58
2023-02-11T04:48:38.353Z,74.16
2023-02-11T04:49:14.212Z,74.07
2023-02-11T04:49:46.024Z,74.32
2023-02-11T04:50:17.906Z,75.53
2023-02-11T04:50:49.654Z,74.90
2023-02-11T04:51:21.437Z,74.61
2023-02-11T04:51:53.225Z,75.25
2023-02-11T04:52:25.064Z,75.36
2023-02-11T04:52:57.060Z,75.80
2023-02-11T04:53:28.873Z,75.31
2023-02-11T04:54:00.692Z,75.51
2023-02-11T04:54:32.506Z,75.41
2023-02-11T04:55:04.663Z,74.55
2023-02-11T04:55:36.455Z,75.19
2023-02-11T04:56:08.407Z,75.37
2023-02-11T04:56:40.263Z,75.65
2023-02-11T04:57:12.026Z,76.29
2023-02-11T04:57:43.871Z,75.47
2023-02-11T04:58:15.632Z,75.11
2023-02-11T04:58:47.435Z,75.45
2023-02-11T04:59:19.180Z,76.13
2023-02-11T04:59:51.158Z,75.42
2023-02-11T05:00:23.076Z,75.89
2023-02-11T05:00:54.912Z,75.85
2023-02-11T05:01:26.809Z,75.99
2023-02-11T05:01:58.671Z,75.75
2023-02-11T05:02:30.375Z,76.70
2023-02-11T05:03:02.103Z,76.03
2023-02-11T05:03:34.007Z,76.65
2023-02-11T05:04:05.819Z,76.18
2023-02-11T05:04:37.618Z,75.95
2023-02-11T05:05:09.413Z,75.81
2023-02-11T05:05:42.668Z,75.94
2023-02-11T05:06:14.476Z,76.22
2023-02-11T05:06:46.323Z,75.99
2023-02-11T05:07:18.115Z,76.06
2023-02-11T05:07:49.942Z,76.57
2023-02-11T05:08:21.647Z,75.82
2023-02-11T05:08:53.370Z,76.02
2023-02-11T05:09:25.245Z,76.63
2023-02-11T05:09:56.994Z,76.35
2023-02-11T05:10:28.754Z,76.84
2023-02-11T05:11:02.280Z,76.77
2023-02-11T05:11:34.464Z,76.30
2023-02-11T05:12:06.464Z,77.37
2023-02-11T05:12:38.276Z,76.46
2023-02-11T05:13:09.994Z,77.34
2023-02-11T05:13:41.729Z,77.01
2023-02-11T05:14:13.466Z,77.06
2023-02-11T05:14:45.327Z,77.30
2023-02-11T05:15:17.204Z,76.98
2023-02-11T05:15:49.403Z,76.40
2023-02-11T05:16:21.618Z,76.59
2023-02-11T05:16:53.503Z,76.89
2023-02-11T05:17:25.274Z,76.79
2023-02-11T05:17:57.023Z,76.40
2023-02-11T05:18:28.734Z,76.85
2023-02-11T05:19:00.503Z,77.08
2023-02-11T05:19:32.458Z,77.60
2023-02-11T05:20:04.502Z,77.13
2023-02-11T05:20:38.948Z,78.07
2023-02-11T05:21:14.213Z,77.39
2023-02-11T05:22:01.365Z,77.45
2023-02-11T05:22:33.456Z,77.29
2023-02-11T05:23:05.217Z,77.25
2023-02-11T05:23:37.590Z,76.64
2023-02-11T05:24:09.447Z,77.29
2023-02-11T05:24:41.286Z,76.51
2023-02-11T05:25:13.272Z,77.41
2023-02-11T05:25:44.998Z,77.07
2023-02-11T05:26:17.568Z,76.70
2023-02-11T05:26:49.474Z,76.57
2023-02-11T05:27:21.400Z,77.18
2023-02-11T05:27:53.146Z,76.66
2023-02-11T05:28:25.087Z,77.27
2023-02-11T05:28:56.964Z,77.19
2023-02-11T05:29:28.862Z,76.37
2023-02-11T05:30:00.625Z,76.48
2023-02-11T05:30:33.103Z,76.55
2023-02-11T05:31:07.867Z,76.50
2023-02-11T05:31:39.667Z,76.80
2023-02-11T05:32:12.258Z,75.73
2023-02-11T05:32:44.030Z,75.98
2023-02-11T05:33:15.832Z,76.31
2023-02-11T05:33:47.659Z,76.68
2023-02-11T05:34:19.663Z,76.54
2023-02-11T05:34:51.429Z,76.21
2023-02-11T05:35:23.319Z,76.38
2023-02-11T05:36:07.792Z,76.28
2023-02-11T05:36:39.574Z,76.67
2023-02-11T05:37:11.488Z,76.11
2023-02-11T05:37:43.633Z,76.38
2023-02-11T05:38:15.424Z,75.71
2023-02-11T05:38:47.247Z,75.62
2023-02-11T05:39:19.097Z,75.61
2023-02-11T05:39:50.822Z,75.91
2023-02-11T05:40:22.598Z,75.03
2023-02-11T05:40:54.544Z,75.93
2023-02-11T05:41:26.389Z,75.97
2023-02-11T05:41:58.143Z,75.36
2023-02-11T05:42:29.874Z,75.32
2023-02-11T05:43:01.719Z,76.05
2023-02-11T05:43:35.445Z,76.16
2023-02-11T05:44:07.265Z,75.38
2023-02-11T05:44:39.188Z,75.57
2023-02-11T05:45:11.036Z,75.31
2023-02-11T05:45:42.809Z,75.45
2023-02-11T05:46:14.549Z,75.13
2023-02-11T05:46:46.493Z,75.53
2023-02-11T05:47:18.351Z,75.66
2023-02-11T05:47:50.149Z,75.81
2023-02-11T05:48:22.086Z,74.70
2023-02-11T05:48:54.140Z,75.49
2023-02-11T05:49:26.060Z,75.25
2023-02-11T05:49:59.010Z,75.61
2023-02-11T05:50:30.755Z,75.78
2023-02-11T05:51:02.522Z,75.56
2023-02-11T05:51:34.288Z,75.62
2023-02-11T05:52:06.168Z,74.46
2023-02-11T05:52:37.967Z,74.91
2023-02-11T05:53:09.994Z,75.58
2023-02-11T05:53:42.006Z,75.58
2023-02-11T05:54:13.832Z,75.76
2023-02-11T05:54:45.624Z,75.08
2023-02-11T05:55:17.496Z,75.42
2023-02-11T05:55:49.486Z,75.63
2023-02-11T05:56:21.575Z,74.69
2023-02-11T05:56:53.878Z,75.07
2023-02-11T05:57:25.704Z,74.85
2023-02-11T05:57:57.771Z,75.33
2023-02-11T05:58:29.594Z,75.05
2023-02-11T05:59:01.525Z,75.52
2023-02-11T05:59:33.377Z,75.52
2023-02-11T06:00:06.330Z,75.27
2023-02-11T06:00:38.302Z,75.53
2023-02-11T06:01:10.115Z,75.65
2023-02-11T06:01:42.384Z,75.17
2023-02-11T06:02:14.269Z,75.69
2023-02-11T06:02:46.099Z,75.82
2023-02-11T06:03:17.890Z,75.14
2023-02-11T06:03:51.557Z,75.29
2023-02-11T06:04:23.422Z,75.15
2023-02-11T06:04:55.315Z,74.83
2023-02-11T06:05:27.161Z,74.52
2023-02-11T06:05:58.953Z,74.29
2023-02-11T06:06:34.386Z,75.03
2023-02-11T06:07:06.254Z,74.49
2023-02-11T06:07:38.223Z,75.17
2023-02-11T06:08:10.075Z,75.34
2023-02-11T06:08:41.832Z,75.25
2023-02-11T06:09:13.560Z,74.48
2023-02-11T06:09:45.862Z,74.82
2023-02-11T06:10:17.963Z,74.42
2023-02-11T06:10:49.765Z,74.76
2023-02-11T06:11:21.539Z,74.57
2023-02-11T06:11:53.283Z,74.13
2023-02-11T06:12:25.224Z,73.88
2023-02-11T06:12:56.981Z,74.17
2023-02-11T06:13:28.697Z,73.82
2023-02-11T06:14:01.600Z,74.14
2023-02-11T06:14:34.292Z,73.55
2023-02-11T06:15:06.739Z,73.31
2023-02-11T06:15:38.542Z,74.02
2023-02-11T06:16:10.750Z,74.18
2023-02-11T06:16:42.557Z,73.75
2023-02-11T06:17:15.661Z,73.64
2023-02-11T06:17:47.576Z,72.84
2023-02-11T06:18:19.484Z,73.27
2023-02-11T06:18:51.350Z,73.32
2023-02-11T06:19:23.070Z,72.68
2023-02-11T06:19:54.804Z,73.16
2023-02-11T06:20:26.701Z,72.68
2023-02-11T06:20:58.457Z,72.51
2023-02-11T06:21:42.929Z,71.79
2023-02-11T06:22:15.575Z,72.79
2023-02-11T06:22:47.344Z,72.16
2023-02-11T06:23:19.177Z,72.08
2023-02-11T06:23:50.949Z,71.08
2023-02-11T06:24:47.707Z,70.94
2023-02-11T06:25:15.244Z,71.24
2023-02-11T06:25:47.175Z,71.54
2023-02-11T06:26:21.892Z,71.34
2023-02-11T06:26:53.694Z,71.54
2023-02-11T06:27:25.456Z,71.03
2023-02-11T06:27:57.540Z,70.21
2023-02-11T06:28:31.403Z,69.96
2023-02-11T06:29:03.755Z,70.41
2023-02-11T06:29:36.565Z,70.04
2023-02-11T06:30:09.167Z,69.30
2023-02-11T06:30:41.343Z,69.58
2023-02-11T06:31:13.411Z,69.45
2023-02-11T06:31:45.293Z,70.00
2023-02-11T06:32:39.431Z,69.78
2023-02-11T06:33:10.030Z,68.99
2023-02-11T06:33:42.424Z,67.73
2023-02-11T06:34:14.285Z,68.45
2023-02-11T06:34:46.566Z,68.29
2023-02-11T06:35:18.510Z,67.83
2023-02-11T06:35:50.438Z,68.02
2023-02-11T06:36:23.358Z,67.59
2023-02-11T06:36:55.219Z,67.45
2023-02-11T06:37:27.148Z,67.22
2023-02-11T06:37:59.473Z,67.42
2023-02-11T06:38:31.557Z,67.05
2023-02-11T06:39:03.879Z,66.84
2023-02-11T06:39:35.782Z,66.80
2023-02-11T06:40:07.881Z,66.37
2023-02-11T06:40:39.762Z,66.51
2023-02-11T06:41:13.319Z,65.90
2023-02-11T06:41:45.175Z,66.54
2023-02-11T06:42:17.447Z,66.07
2023-02-11T06:42:50.142Z,65.82
2023-02-11T06:43:22.330Z,65.12
2023-02-11T06:43:54.935Z,65.27
2023-02-11T06:44:29.088Z,64.88
2023-02-11T06:45:02.804Z,65.36
2023-02-11T06:45:34.639Z,65.51
2023-02-11T06:46:07.078Z,65.62
2023-02-11T06:46:39.302Z,64.90
2023-02-11T06:47:11.406Z,65.01
2023-02-11T06:47:43.270Z,64.76
2023-02-11T06:48:15.648Z,65.44
2023-02-11T06:48:47.465Z,65.21
2023-02-11T06:49:19.301Z,64.83
2023-02-11T06:49:51.040Z,65.83
2023-02-11T06:50:22.818Z,65.73
2023-02-11T06:50:54.649Z,65.84
2023-02-11T06:51:26.573Z,65.19
2023-02-11T06:51:58.305Z,64.57
2023-02-11T06:52:30.174Z,64.24
2023-02-11T06:53:02.058Z,64.09
2023-02-11T06:53:39.462Z,63.91
2023-02-11T06:54:13.050Z,63.50
2023-02-11T06:54:44.890Z,63.32
2023-02-11T06:55:16.910Z,63.65
2023-02-11T06:55:48.853Z,63.10
2023-02-11T06:56:23.488Z,62.71
2023-02-11T06:56:55.290Z,62.71
2023-02-11T06:57:26.999Z,62.87
2023-02-11T06:57:58.780Z,62.49
2023-02-11T06:58:30.587Z,62.65
2023-02-11T06:59:03.552Z,62.86
2023-02-11T06:59:35.306Z,62.99
2023-02-11T07:00:07.878Z,63.15
2023-02-11T07:00:39.718Z,63.77
2023-02-11T07:01:15.153Z,63.97
2023-02-11T07:01:47.893Z,63.78
2023-02-11T07:02:21.035Z,64.03
2023-02-11T07:02:53.102Z,64.84
2023-02-11T07:03:25.440Z,65.15
2023-02-11T07:03:57.401Z,64.85
2023-02-11T07:04:29.325Z,65.44
2023-02-11T07:05:01.634Z,65.94
2023-02-11T07:05:34.468Z,64.98
2023-02-11T07:06:08.319Z,65.32
2023-02-11T07:06:40.771Z,65.40
2023-02-11T07:07:12.566Z,65.21
2023-02-11T07:07:44.357Z,65.72
2023-02-11T07:08:16.249Z,65.09
2023-02-11T07:08:48.722Z,65.50
2023-02-11T07:09:20.819Z,65.56
2023-02-11T07:09:52.582Z,66.19
2023-02-11T07:10:24.356Z,67.13
2023-02-11T07:10:56.349Z,67.22
2023-02-11T07:11:30.185Z,67.66
2023-02-11T07:12:02.238Z,67.10
2023-02-11T07:12:34.104Z,67.23
2023-02-11T07:13:06.050Z,67.61
2023-02-11T07:13:38.008Z,67.36
2023-02-11T07:14:10.788Z,67.14
2023-02-11T07:14:42.788Z,67.28
2023-02-11T07:15:14.585Z,67.02
2023-02-11T07:15:46.497Z,67.45
2023-02-11T07:16:19.822Z,67.37
2023-02-11T07:16:51.843Z,67.11
2023-02-11T07:17:23.663Z,66.67
2023-02-11T07:17:55.443Z,67.07
2023-02-11T07:18:27.271Z,67.32
2023-02-11T07:18:59.151Z,66.66
2023-02-11T07:19:31.053Z,66.80
2023-02-11T07:20:03.636Z,66.90
2023-02-11T07:20:36.735Z,66.21
2023-02-11T07:21:11.814Z,66.35
2023-02-11T07:21:43.606Z,66.63
2023-02-11T07:22:15.462Z,66.82
2023-02-11T07:22:47.179Z,66.22
2023-02-11T07:23:18.938Z,66.51
2023-02-11T07:23:51.811Z,66.13
2023-02-11T07:24:23.554Z,66.39
2023-02-11T07:24:55.285Z,66.45
2023-02-11T07:25:27.190Z,65.78
2023-02-11T07:25:58.993Z,66.32
2023-02-11T07:26:31.283Z,66.18
2023-02-11T07:27:03.101Z,66.09
2023-02-11T07:27:35.125Z,65.78
2023-02-11T07:28:06.993Z,65.20
2023-02-11T07:28:40.575Z,65.85
2023-02-11T07:29:12.373Z,65.79
2023-02-11T07:29:45.853Z,67.28
2023-02-11T07:30:17.928Z,67.16
2023-02-11T07:30:49.782Z,66.13
2023-02-11T07:31:27.466Z,66.73
2023-02-11T07:31:59.623Z,66.51
2023-02-11T07:32:31.598Z,66.60